sensor_id;sensor_type;location;lat;lon;timestamp;temperature;humidity
23633;DHT22;11993;48.748;9.166;2023-04-15T00:01:18;8.30;61.70
23633;DHT22;11993;48.748;9.166;2023-04-15T00:03:44;8.40;61.90
23633;DHT22;11993;48.748;9.166;2023-04-15T00:06:10;8.40;61.40
23633;DHT22;11993;48.748;9.166;2023-04-15T00:08:36;8.10;61.80
23633;DHT22;11993;48.748;9.166;2023-04-15T00:11:02;8.00;62.70
23633;DHT22;11993;48.748;9.166;2023-04-15T00:13:30;7.90;62.80
23633;DHT22;11993;48.748;9.166;2023-04-15T00:15:57;7.90;62.90
23633;DHT22;11993;48.748;9.166;2023-04-15T00:18:23;8.00;62.70
23633;DHT22;11993;48.748;9.166;2023-04-15T00:20:49;7.90;62.50
23633;DHT22;11993;48.748;9.166;2023-04-15T00:23:14;8.00;62.70
23633;DHT22;11993;48.748;9.166;2023-04-15T00:25:40;8.10;62.50
23633;DHT22;11993;48.748;9.166;2023-04-15T00:28:06;8.10;62.70
23633;DHT22;11993;48.748;9.166;2023-04-15T00:30:31;8.10;62.80
23633;DHT22;11993;48.748;9.166;2023-04-15T00:32:57;8.10;62.60
23633;DHT22;11993;48.748;9.166;2023-04-15T00:35:23;8.20;63.00
23633;DHT22;11993;48.748;9.166;2023-04-15T00:37:48;8.10;62.90
23633;DHT22;11993;48.748;9.166;2023-04-15T00:40:16;8.10;63.30
23633;DHT22;11993;48.748;9.166;2023-04-15T00:42:43;8.10;62.80
23633;DHT22;11993;48.748;9.166;2023-04-15T00:45:09;8.10;62.80
23633;DHT22;11993;48.748;9.166;2023-04-15T00:47:36;8.10;62.80
23633;DHT22;11993;48.748;9.166;2023-04-15T00:50:03;7.90;63.00
23633;DHT22;11993;48.748;9.166;2023-04-15T00:52:29;7.80;63.10
23633;DHT22;11993;48.748;9.166;2023-04-15T00:54:55;7.70;63.60
23633;DHT22;11993;48.748;9.166;2023-04-15T00:57:20;7.70;63.60
23633;DHT22;11993;48.748;9.166;2023-04-15T00:59:46;7.80;63.50
23633;DHT22;11993;48.748;9.166;2023-04-15T01:02:12;7.60;63.90
23633;DHT22;11993;48.748;9.166;2023-04-15T01:04:38;7.70;64.20
23633;DHT22;11993;48.748;9.166;2023-04-15T01:07:03;7.60;64.70
23633;DHT22;11993;48.748;9.166;2023-04-15T01:09:29;7.50;64.70
23633;DHT22;11993;48.748;9.166;2023-04-15T01:11:55;7.50;64.70
23633;DHT22;11993;48.748;9.166;2023-04-15T01:14:21;7.40;65.00
23633;DHT22;11993;48.748;9.166;2023-04-15T01:16:47;7.60;64.80
23633;DHT22;11993;48.748;9.166;2023-04-15T01:19:13;7.50;64.80
23633;DHT22;11993;48.748;9.166;2023-04-15T01:21:41;7.50;64.90
23633;DHT22;11993;48.748;9.166;2023-04-15T01:24:09;7.50;65.20
23633;DHT22;11993;48.748;9.166;2023-04-15T01:26:36;7.20;65.70
23633;DHT22;11993;48.748;9.166;2023-04-15T01:29:02;7.40;65.40
23633;DHT22;11993;48.748;9.166;2023-04-15T01:31:28;7.10;66.30
23633;DHT22;11993;48.748;9.166;2023-04-15T01:33:53;7.10;66.00
23633;DHT22;11993;48.748;9.166;2023-04-15T01:36:19;7.20;66.20
23633;DHT22;11993;48.748;9.166;2023-04-15T01:38:44;7.20;66.10
23633;DHT22;11993;48.748;9.166;2023-04-15T01:41:10;7.10;66.60
23633;DHT22;11993;48.748;9.166;2023-04-15T01:43:37;7.20;66.30
23633;DHT22;11993;48.748;9.166;2023-04-15T01:46:03;7.20;66.10
23633;DHT22;11993;48.748;9.166;2023-04-15T01:48:28;7.20;65.90
23633;DHT22;11993;48.748;9.166;2023-04-15T01:50:54;7.10;66.40
23633;DHT22;11993;48.748;9.166;2023-04-15T01:53:22;7.10;66.60
23633;DHT22;11993;48.748;9.166;2023-04-15T01:55:48;7.10;66.70
23633;DHT22;11993;48.748;9.166;2023-04-15T01:58:14;6.90;67.10
23633;DHT22;11993;48.748;9.166;2023-04-15T02:00:39;6.90;67.50
23633;DHT22;11993;48.748;9.166;2023-04-15T02:03:06;6.90;67.40
23633;DHT22;11993;48.748;9.166;2023-04-15T02:05:31;7.00;67.30
23633;DHT22;11993;48.748;9.166;2023-04-15T02:07:57;6.90;67.40
23633;DHT22;11993;48.748;9.166;2023-04-15T02:10:22;6.90;67.20
23633;DHT22;11993;48.748;9.166;2023-04-15T02:12:48;7.00;67.20
23633;DHT22;11993;48.748;9.166;2023-04-15T02:15:13;6.90;66.90
23633;DHT22;11993;48.748;9.166;2023-04-15T02:17:39;7.00;67.00
23633;DHT22;11993;48.748;9.166;2023-04-15T02:20:05;6.90;66.90
23633;DHT22;11993;48.748;9.166;2023-04-15T02:22:33;7.00;66.80
23633;DHT22;11993;48.748;9.166;2023-04-15T02:24:59;6.90;66.90
23633;DHT22;11993;48.748;9.166;2023-04-15T02:27:25;6.80;67.00
23633;DHT22;11993;48.748;9.166;2023-04-15T02:29:50;6.70;67.30
23633;DHT22;11993;48.748;9.166;2023-04-15T02:32:19;6.70;67.20
23633;DHT22;11993;48.748;9.166;2023-04-15T02:34:47;6.60;68.00
23633;DHT22;11993;48.748;9.166;2023-04-15T02:37:13;6.40;68.00
23633;DHT22;11993;48.748;9.166;2023-04-15T02:39:39;6.40;68.20
23633;DHT22;11993;48.748;9.166;2023-04-15T02:42:06;6.50;68.10
23633;DHT22;11993;48.748;9.166;2023-04-15T02:44:32;6.60;68.10
23633;DHT22;11993;48.748;9.166;2023-04-15T02:46:59;6.50;67.90
23633;DHT22;11993;48.748;9.166;2023-04-15T02:49:25;6.60;67.80
23633;DHT22;11993;48.748;9.166;2023-04-15T02:51:54;6.60;67.60
23633;DHT22;11993;48.748;9.166;2023-04-15T02:54:20;6.60;67.90
23633;DHT22;11993;48.748;9.166;2023-04-15T02:56:47;6.70;67.50
23633;DHT22;11993;48.748;9.166;2023-04-15T02:59:14;6.80;66.90
23633;DHT22;11993;48.748;9.166;2023-04-15T03:01:39;6.60;67.30
23633;DHT22;11993;48.748;9.166;2023-04-15T03:04:05;6.50;67.60
23633;DHT22;11993;48.748;9.166;2023-04-15T03:06:33;6.60;67.70
23633;DHT22;11993;48.748;9.166;2023-04-15T03:08:59;6.60;66.90
23633;DHT22;11993;48.748;9.166;2023-04-15T03:11:25;6.60;66.20
23633;DHT22;11993;48.748;9.166;2023-04-15T03:13:51;6.60;67.00
23633;DHT22;11993;48.748;9.166;2023-04-15T03:16:17;6.70;66.40
23633;DHT22;11993;48.748;9.166;2023-04-15T03:18:42;6.80;65.80
23633;DHT22;11993;48.748;9.166;2023-04-15T03:21:08;6.60;65.60
23633;DHT22;11993;48.748;9.166;2023-04-15T03:23:33;6.50;66.20
23633;DHT22;11993;48.748;9.166;2023-04-15T03:26:03;6.60;66.20
23633;DHT22;11993;48.748;9.166;2023-04-15T03:28:29;6.60;66.30
23633;DHT22;11993;48.748;9.166;2023-04-15T03:30:55;6.70;66.00
23633;DHT22;11993;48.748;9.166;2023-04-15T03:33:21;6.90;65.70
23633;DHT22;11993;48.748;9.166;2023-04-15T03:35:46;6.80;65.50
23633;DHT22;11993;48.748;9.166;2023-04-15T03:38:12;6.70;65.30
23633;DHT22;11993;48.748;9.166;2023-04-15T03:40:41;6.80;64.90
23633;DHT22;11993;48.748;9.166;2023-04-15T03:43:06;6.80;64.50
23633;DHT22;11993;48.748;9.166;2023-04-15T03:45:32;6.80;63.40
23633;DHT22;11993;48.748;9.166;2023-04-15T03:47:58;6.80;63.50
23633;DHT22;11993;48.748;9.166;2023-04-15T03:50:23;6.90;63.10
23633;DHT22;11993;48.748;9.166;2023-04-15T03:52:49;6.60;63.60
23633;DHT22;11993;48.748;9.166;2023-04-15T03:55:15;6.60;63.20
23633;DHT22;11993;48.748;9.166;2023-04-15T03:57:40;6.40;63.60
23633;DHT22;11993;48.748;9.166;2023-04-15T04:00:07;6.30;64.60
23633;DHT22;11993;48.748;9.166;2023-04-15T04:02:33;6.30;64.70
23633;DHT22;11993;48.748;9.166;2023-04-15T04:04:59;6.30;64.80
23633;DHT22;11993;48.748;9.166;2023-04-15T04:07:25;6.20;65.30
23633;DHT22;11993;48.748;9.166;2023-04-15T04:09:51;6.10;65.70
23633;DHT22;11993;48.748;9.166;2023-04-15T04:12:16;6.20;65.60
23633;DHT22;11993;48.748;9.166;2023-04-15T04:14:42;6.30;65.40
23633;DHT22;11993;48.748;9.166;2023-04-15T04:17:07;6.20;65.30
23633;DHT22;11993;48.748;9.166;2023-04-15T04:19:33;6.10;65.10
23633;DHT22;11993;48.748;9.166;2023-04-15T04:21:59;6.20;65.00
23633;DHT22;11993;48.748;9.166;2023-04-15T04:24:24;6.30;64.60
23633;DHT22;11993;48.748;9.166;2023-04-15T04:26:50;6.20;65.10
23633;DHT22;11993;48.748;9.166;2023-04-15T04:29:16;6.30;64.70
23633;DHT22;11993;48.748;9.166;2023-04-15T04:31:41;6.30;63.80
23633;DHT22;11993;48.748;9.166;2023-04-15T04:34:07;6.40;63.60
23633;DHT22;11993;48.748;9.166;2023-04-15T04:36:33;6.40;63.60
23633;DHT22;11993;48.748;9.166;2023-04-15T04:38:58;6.40;63.80
23633;DHT22;11993;48.748;9.166;2023-04-15T04:41:24;6.20;64.40
23633;DHT22;11993;48.748;9.166;2023-04-15T04:43:49;6.10;65.00
23633;DHT22;11993;48.748;9.166;2023-04-15T04:46:15;5.90;65.40
23633;DHT22;11993;48.748;9.166;2023-04-15T04:48:41;6.00;65.50
23633;DHT22;11993;48.748;9.166;2023-04-15T04:51:06;6.10;65.50
23633;DHT22;11993;48.748;9.166;2023-04-15T04:53:32;6.10;65.60
23633;DHT22;11993;48.748;9.166;2023-04-15T04:55:58;6.10;66.00
23633;DHT22;11993;48.748;9.166;2023-04-15T04:58:23;6.10;66.40
23633;DHT22;11993;48.748;9.166;2023-04-15T05:00:49;6.00;66.20
23633;DHT22;11993;48.748;9.166;2023-04-15T05:03:15;5.80;67.60
23633;DHT22;11993;48.748;9.166;2023-04-15T05:05:41;5.70;67.80
23633;DHT22;11993;48.748;9.166;2023-04-15T05:08:06;5.50;68.90
23633;DHT22;11993;48.748;9.166;2023-04-15T05:10:32;5.60;68.70
23633;DHT22;11993;48.748;9.166;2023-04-15T05:12:58;5.90;68.30
23633;DHT22;11993;48.748;9.166;2023-04-15T05:15:23;5.70;68.10
23633;DHT22;11993;48.748;9.166;2023-04-15T05:17:49;5.50;69.10
23633;DHT22;11993;48.748;9.166;2023-04-15T05:20:15;5.60;68.90
23633;DHT22;11993;48.748;9.166;2023-04-15T05:22:41;5.50;68.80
23633;DHT22;11993;48.748;9.166;2023-04-15T05:25:07;5.20;70.30
23633;DHT22;11993;48.748;9.166;2023-04-15T05:27:33;5.30;70.30
23633;DHT22;11993;48.748;9.166;2023-04-15T05:29:59;5.30;69.70
23633;DHT22;11993;48.748;9.166;2023-04-15T05:32:24;5.40;69.20
23633;DHT22;11993;48.748;9.166;2023-04-15T05:34:50;5.40;69.30
23633;DHT22;11993;48.748;9.166;2023-04-15T05:37:16;5.50;69.00
23633;DHT22;11993;48.748;9.166;2023-04-15T05:39:42;5.70;68.00
23633;DHT22;11993;48.748;9.166;2023-04-15T05:42:07;5.90;67.70
23633;DHT22;11993;48.748;9.166;2023-04-15T05:44:33;5.70;67.60
23633;DHT22;11993;48.748;9.166;2023-04-15T05:46:59;5.90;67.20
23633;DHT22;11993;48.748;9.166;2023-04-15T05:49:25;6.10;67.70
23633;DHT22;11993;48.748;9.166;2023-04-15T05:51:50;6.20;66.90
23633;DHT22;11993;48.748;9.166;2023-04-15T05:54:17;6.20;67.30
23633;DHT22;11993;48.748;9.166;2023-04-15T05:56:43;6.50;66.20
23633;DHT22;11993;48.748;9.166;2023-04-15T05:59:08;6.50;66.20
23633;DHT22;11993;48.748;9.166;2023-04-15T06:01:34;6.20;67.00
23633;DHT22;11993;48.748;9.166;2023-04-15T06:03:59;6.20;67.60
23633;DHT22;11993;48.748;9.166;2023-04-15T06:06:26;6.60;66.60
23633;DHT22;11993;48.748;9.166;2023-04-15T06:08:52;6.80;65.50
23633;DHT22;11993;48.748;9.166;2023-04-15T06:11:19;7.10;65.10
23633;DHT22;11993;48.748;9.166;2023-04-15T06:13:45;7.20;64.90
23633;DHT22;11993;48.748;9.166;2023-04-15T06:16:11;7.40;64.60
23633;DHT22;11993;48.748;9.166;2023-04-15T06:18:37;7.10;65.00
23633;DHT22;11993;48.748;9.166;2023-04-15T06:21:02;7.60;64.40
23633;DHT22;11993;48.748;9.166;2023-04-15T06:23:28;7.90;63.60
23633;DHT22;11993;48.748;9.166;2023-04-15T06:25:54;8.10;62.60
23633;DHT22;11993;48.748;9.166;2023-04-15T06:28:19;7.80;63.30
23633;DHT22;11993;48.748;9.166;2023-04-15T06:30:45;8.30;62.00
23633;DHT22;11993;48.748;9.166;2023-04-15T06:33:11;8.60;60.90
23633;DHT22;11993;48.748;9.166;2023-04-15T06:35:36;8.60;60.90
23633;DHT22;11993;48.748;9.166;2023-04-15T06:38:03;8.80;59.80
23633;DHT22;11993;48.748;9.166;2023-04-15T06:40:29;9.10;60.50
23633;DHT22;11993;48.748;9.166;2023-04-15T06:42:55;9.40;57.40
23633;DHT22;11993;48.748;9.166;2023-04-15T06:45:20;9.70;57.60
23633;DHT22;11993;48.748;9.166;2023-04-15T06:47:46;9.80;56.50
23633;DHT22;11993;48.748;9.166;2023-04-15T06:50:11;9.80;57.00
23633;DHT22;11993;48.748;9.166;2023-04-15T06:52:37;9.90;55.70
23633;DHT22;11993;48.748;9.166;2023-04-15T06:55:04;10.10;55.60
23633;DHT22;11993;48.748;9.166;2023-04-15T06:57:29;10.40;54.30
23633;DHT22;11993;48.748;9.166;2023-04-15T06:59:55;10.60;53.70
23633;DHT22;11993;48.748;9.166;2023-04-15T07:02:21;10.70;53.60
23633;DHT22;11993;48.748;9.166;2023-04-15T07:04:46;10.90;52.80
23633;DHT22;11993;48.748;9.166;2023-04-15T07:07:13;11.10;53.60
23633;DHT22;11993;48.748;9.166;2023-04-15T07:09:39;11.10;53.50
23633;DHT22;11993;48.748;9.166;2023-04-15T07:12:05;11.20;53.90
23633;DHT22;11993;48.748;9.166;2023-04-15T07:14:30;11.50;52.90
23633;DHT22;11993;48.748;9.166;2023-04-15T07:16:56;11.90;51.70
23633;DHT22;11993;48.748;9.166;2023-04-15T07:19:22;12.10;51.10
23633;DHT22;11993;48.748;9.166;2023-04-15T07:21:47;12.10;50.70
23633;DHT22;11993;48.748;9.166;2023-04-15T07:24:13;12.40;49.70
23633;DHT22;11993;48.748;9.166;2023-04-15T07:26:43;12.30;51.60
23633;DHT22;11993;48.748;9.166;2023-04-15T07:29:08;12.50;51.80
23633;DHT22;11993;48.748;9.166;2023-04-15T07:31:34;13.10;49.70
23633;DHT22;11993;48.748;9.166;2023-04-15T07:34:01;13.00;50.40
23633;DHT22;11993;48.748;9.166;2023-04-15T07:36:27;13.40;50.50
23633;DHT22;11993;48.748;9.166;2023-04-15T07:38:53;13.60;49.00
23633;DHT22;11993;48.748;9.166;2023-04-15T07:41:20;13.70;49.80
23633;DHT22;11993;48.748;9.166;2023-04-15T07:43:46;13.70;49.20
23633;DHT22;11993;48.748;9.166;2023-04-15T07:46:13;13.30;50.50
23633;DHT22;11993;48.748;9.166;2023-04-15T07:48:38;13.00;50.50
23633;DHT22;11993;48.748;9.166;2023-04-15T07:51:04;12.90;52.60
23633;DHT22;11993;48.748;9.166;2023-04-15T07:53:30;12.90;51.20
23633;DHT22;11993;48.748;9.166;2023-04-15T07:55:57;12.70;51.60
23633;DHT22;11993;48.748;9.166;2023-04-15T07:58:23;12.50;53.20
23633;DHT22;11993;48.748;9.166;2023-04-15T08:00:49;12.40;53.20
23633;DHT22;11993;48.748;9.166;2023-04-15T08:03:14;12.10;53.60
23633;DHT22;11993;48.748;9.166;2023-04-15T08:05:40;11.60;55.20
23633;DHT22;11993;48.748;9.166;2023-04-15T08:08:06;11.80;55.10
23633;DHT22;11993;48.748;9.166;2023-04-15T08:10:31;12.10;54.90
23633;DHT22;11993;48.748;9.166;2023-04-15T08:12:57;12.30;53.90
23633;DHT22;11993;48.748;9.166;2023-04-15T08:15:23;12.50;53.40
23633;DHT22;11993;48.748;9.166;2023-04-15T08:17:49;12.60;53.50
23633;DHT22;11993;48.748;9.166;2023-04-15T08:20:14;12.40;53.20
23633;DHT22;11993;48.748;9.166;2023-04-15T08:22:40;13.00;50.90
23633;DHT22;11993;48.748;9.166;2023-04-15T08:25:07;12.60;52.20
23633;DHT22;11993;48.748;9.166;2023-04-15T08:27:33;13.30;50.80
23633;DHT22;11993;48.748;9.166;2023-04-15T08:29:58;13.40;49.50
23633;DHT22;11993;48.748;9.166;2023-04-15T08:32:24;13.50;47.40
23633;DHT22;11993;48.748;9.166;2023-04-15T08:34:51;13.10;49.90
23633;DHT22;11993;48.748;9.166;2023-04-15T08:37:16;13.40;48.40
23633;DHT22;11993;48.748;9.166;2023-04-15T08:39:42;13.50;48.70
23633;DHT22;11993;48.748;9.166;2023-04-15T08:42:16;13.70;48.90
23633;DHT22;11993;48.748;9.166;2023-04-15T08:44:42;14.10;50.50
23633;DHT22;11993;48.748;9.166;2023-04-15T08:47:12;14.60;46.70
23633;DHT22;11993;48.748;9.166;2023-04-15T08:49:39;14.30;47.90
23633;DHT22;11993;48.748;9.166;2023-04-15T08:52:06;14.10;46.30
23633;DHT22;11993;48.748;9.166;2023-04-15T08:54:34;14.10;47.10
23633;DHT22;11993;48.748;9.166;2023-04-15T08:56:59;14.30;45.60
23633;DHT22;11993;48.748;9.166;2023-04-15T08:59:27;14.20;48.30
23633;DHT22;11993;48.748;9.166;2023-04-15T09:01:54;15.10;45.40
23633;DHT22;11993;48.748;9.166;2023-04-15T09:04:21;15.40;45.20
23633;DHT22;11993;48.748;9.166;2023-04-15T09:06:47;16.10;44.00
23633;DHT22;11993;48.748;9.166;2023-04-15T09:09:12;16.50;41.20
23633;DHT22;11993;48.748;9.166;2023-04-15T09:11:38;16.40;43.10
23633;DHT22;11993;48.748;9.166;2023-04-15T09:14:04;16.10;43.30
23633;DHT22;11993;48.748;9.166;2023-04-15T09:16:30;16.80;42.50
23633;DHT22;11993;48.748;9.166;2023-04-15T09:18:56;17.30;41.10
23633;DHT22;11993;48.748;9.166;2023-04-15T09:21:22;17.60;42.20
23633;DHT22;11993;48.748;9.166;2023-04-15T09:23:59;17.70;39.10
23633;DHT22;11993;48.748;9.166;2023-04-15T09:26:36;17.30;41.10
23633;DHT22;11993;48.748;9.166;2023-04-15T09:29:09;17.10;41.00
23633;DHT22;11993;48.748;9.166;2023-04-15T09:31:38;16.50;42.20
23633;DHT22;11993;48.748;9.166;2023-04-15T09:34:05;16.50;41.60
23633;DHT22;11993;48.748;9.166;2023-04-15T09:39:12;16.80;41.30
23633;DHT22;11993;48.748;9.166;2023-04-15T09:41:38;17.10;40.00
23633;DHT22;11993;48.748;9.166;2023-04-15T09:44:04;17.30;39.10
23633;DHT22;11993;48.748;9.166;2023-04-15T09:46:48;16.80;40.10
23633;DHT22;11993;48.748;9.166;2023-04-15T09:49:14;16.60;42.10
23633;DHT22;11993;48.748;9.166;2023-04-15T09:51:40;16.60;40.20
23633;DHT22;11993;48.748;9.166;2023-04-15T09:54:05;16.90;38.40
23633;DHT22;11993;48.748;9.166;2023-04-15T09:56:34;16.30;39.90
23633;DHT22;11993;48.748;9.166;2023-04-15T09:59:09;15.50;41.10
23633;DHT22;11993;48.748;9.166;2023-04-15T10:01:35;15.20;43.60
23633;DHT22;11993;48.748;9.166;2023-04-15T10:04:03;15.40;42.70
23633;DHT22;11993;48.748;9.166;2023-04-15T10:06:29;14.80;44.00
23633;DHT22;11993;48.748;9.166;2023-04-15T10:08:59;14.80;43.10
23633;DHT22;11993;48.748;9.166;2023-04-15T10:11:28;14.80;44.30
23633;DHT22;11993;48.748;9.166;2023-04-15T10:13:55;14.80;43.00
23633;DHT22;11993;48.748;9.166;2023-04-15T10:16:22;14.50;43.70
23633;DHT22;11993;48.748;9.166;2023-04-15T10:18:54;14.40;45.20
23633;DHT22;11993;48.748;9.166;2023-04-15T10:21:20;14.80;44.60
23633;DHT22;11993;48.748;9.166;2023-04-15T10:23:47;14.50;44.20
23633;DHT22;11993;48.748;9.166;2023-04-15T10:26:12;14.80;42.80
23633;DHT22;11993;48.748;9.166;2023-04-15T10:28:42;14.80;42.40
23633;DHT22;11993;48.748;9.166;2023-04-15T10:31:08;14.60;44.30
23633;DHT22;11993;48.748;9.166;2023-04-15T10:33:36;14.60;43.60
23633;DHT22;11993;48.748;9.166;2023-04-15T10:36:03;14.50;43.10
23633;DHT22;11993;48.748;9.166;2023-04-15T10:41:21;15.30;41.90
23633;DHT22;11993;48.748;9.166;2023-04-15T10:43:49;15.50;41.60
23633;DHT22;11993;48.748;9.166;2023-04-15T10:46:21;15.10;43.80
23633;DHT22;11993;48.748;9.166;2023-04-15T10:48:52;15.20;43.20
23633;DHT22;11993;48.748;9.166;2023-04-15T10:51:38;15.50;41.60
23633;DHT22;11993;48.748;9.166;2023-04-15T10:54:14;15.30;40.30
23633;DHT22;11993;48.748;9.166;2023-04-15T10:56:41;15.70;41.20
23633;DHT22;11993;48.748;9.166;2023-04-15T10:59:08;16.20;41.60
23633;DHT22;11993;48.748;9.166;2023-04-15T11:01:53;16.00;42.00
23633;DHT22;11993;48.748;9.166;2023-04-15T11:04:54;16.00;41.00
23633;DHT22;11993;48.748;9.166;2023-04-15T11:07:39;15.80;42.00
23633;DHT22;11993;48.748;9.166;2023-04-15T11:13:03;14.90;43.90
23633;DHT22;11993;48.748;9.166;2023-04-15T11:15:35;14.40;44.60
23633;DHT22;11993;48.748;9.166;2023-04-15T11:18:26;14.20;44.30
23633;DHT22;11993;48.748;9.166;2023-04-15T11:21:05;14.00;44.50
23633;DHT22;11993;48.748;9.166;2023-04-15T11:23:39;13.70;45.60
23633;DHT22;11993;48.748;9.166;2023-04-15T11:26:09;13.90;45.20
23633;DHT22;11993;48.748;9.166;2023-04-15T11:28:42;13.70;46.20
23633;DHT22;11993;48.748;9.166;2023-04-15T11:31:13;14.50;45.60
23633;DHT22;11993;48.748;9.166;2023-04-15T11:34:01;15.60;43.20
23633;DHT22;11993;48.748;9.166;2023-04-15T11:36:29;16.20;41.80
23633;DHT22;11993;48.748;9.166;2023-04-15T11:38:57;16.60;40.50
23633;DHT22;11993;48.748;9.166;2023-04-15T11:41:23;17.10;38.80
23633;DHT22;11993;48.748;9.166;2023-04-15T11:43:50;16.60;39.60
23633;DHT22;11993;48.748;9.166;2023-04-15T11:46:17;16.10;39.70
23633;DHT22;11993;48.748;9.166;2023-04-15T11:48:44;15.30;40.80
23633;DHT22;11993;48.748;9.166;2023-04-15T11:51:12;15.30;41.70
23633;DHT22;11993;48.748;9.166;2023-04-15T11:53:40;15.20;43.80
23633;DHT22;11993;48.748;9.166;2023-04-15T11:56:15;15.00;42.70
23633;DHT22;11993;48.748;9.166;2023-04-15T11:58:41;14.60;44.40
23633;DHT22;11993;48.748;9.166;2023-04-15T12:01:07;13.90;48.60
23633;DHT22;11993;48.748;9.166;2023-04-15T12:03:42;13.60;53.70
23633;DHT22;11993;48.748;9.166;2023-04-15T12:06:12;13.70;54.10
23633;DHT22;11993;48.748;9.166;2023-04-15T12:08:56;13.50;53.20
23633;DHT22;11993;48.748;9.166;2023-04-15T12:13:54;14.00;54.40
23633;DHT22;11993;48.748;9.166;2023-04-15T12:16:22;14.30;51.30
23633;DHT22;11993;48.748;9.166;2023-04-15T12:18:58;14.40;52.40
23633;DHT22;11993;48.748;9.166;2023-04-15T12:21:26;14.40;49.40
23633;DHT22;11993;48.748;9.166;2023-04-15T12:23:56;14.80;48.70
23633;DHT22;11993;48.748;9.166;2023-04-15T12:26:27;14.60;48.90
23633;DHT22;11993;48.748;9.166;2023-04-15T12:28:54;15.10;47.60
23633;DHT22;11993;48.748;9.166;2023-04-15T12:31:20;15.40;47.00
23633;DHT22;11993;48.748;9.166;2023-04-15T12:33:47;15.20;46.90
23633;DHT22;11993;48.748;9.166;2023-04-15T12:36:14;15.00;45.90
23633;DHT22;11993;48.748;9.166;2023-04-15T12:38:39;14.60;47.20
23633;DHT22;11993;48.748;9.166;2023-04-15T12:41:05;13.70;50.70
23633;DHT22;11993;48.748;9.166;2023-04-15T12:43:30;12.70;54.60
23633;DHT22;11993;48.748;9.166;2023-04-15T12:45:56;12.30;56.00
23633;DHT22;11993;48.748;9.166;2023-04-15T12:48:21;11.80;58.40
23633;DHT22;11993;48.748;9.166;2023-04-15T12:50:47;11.70;58.30
23633;DHT22;11993;48.748;9.166;2023-04-15T12:53:12;12.00;60.00
23633;DHT22;11993;48.748;9.166;2023-04-15T12:55:38;11.90;61.20
23633;DHT22;11993;48.748;9.166;2023-04-15T12:58:04;11.50;62.70
23633;DHT22;11993;48.748;9.166;2023-04-15T13:00:29;11.60;63.70
23633;DHT22;11993;48.748;9.166;2023-04-15T13:02:55;11.60;62.70
23633;DHT22;11993;48.748;9.166;2023-04-15T13:05:20;11.20;64.60
23633;DHT22;11993;48.748;9.166;2023-04-15T13:07:46;11.60;64.70
23633;DHT22;11993;48.748;9.166;2023-04-15T13:10:11;11.40;64.60
23633;DHT22;11993;48.748;9.166;2023-04-15T13:12:37;11.50;63.80
23633;DHT22;11993;48.748;9.166;2023-04-15T13:15:03;11.80;62.90
23633;DHT22;11993;48.748;9.166;2023-04-15T13:17:29;12.00;61.50
23633;DHT22;11993;48.748;9.166;2023-04-15T13:19:55;11.90;59.30
23633;DHT22;11993;48.748;9.166;2023-04-15T13:22:20;12.10;58.20
23633;DHT22;11993;48.748;9.166;2023-04-15T13:24:46;12.20;55.60
23633;DHT22;11993;48.748;9.166;2023-04-15T13:27:11;12.10;55.70
23633;DHT22;11993;48.748;9.166;2023-04-15T13:29:37;12.30;55.50
23633;DHT22;11993;48.748;9.166;2023-04-15T13:32:04;12.10;56.00
23633;DHT22;11993;48.748;9.166;2023-04-15T13:34:30;12.30;53.60
23633;DHT22;11993;48.748;9.166;2023-04-15T13:36:56;12.40;54.70
23633;DHT22;11993;48.748;9.166;2023-04-15T13:39:21;12.10;54.90
23633;DHT22;11993;48.748;9.166;2023-04-15T13:41:47;12.40;53.90
23633;DHT22;11993;48.748;9.166;2023-04-15T13:44:13;12.20;55.70
23633;DHT22;11993;48.748;9.166;2023-04-15T13:46:39;12.40;51.50
23633;DHT22;11993;48.748;9.166;2023-04-15T13:49:06;12.40;50.20
23633;DHT22;11993;48.748;9.166;2023-04-15T13:51:31;12.40;51.00
23633;DHT22;11993;48.748;9.166;2023-04-15T13:53:57;12.80;51.10
23633;DHT22;11993;48.748;9.166;2023-04-15T13:56:23;12.90;49.30
23633;DHT22;11993;48.748;9.166;2023-04-15T13:58:48;12.80;47.10
23633;DHT22;11993;48.748;9.166;2023-04-15T14:01:14;13.10;45.60
23633;DHT22;11993;48.748;9.166;2023-04-15T14:03:40;12.70;47.20
23633;DHT22;11993;48.748;9.166;2023-04-15T14:06:06;12.60;45.40
23633;DHT22;11993;48.748;9.166;2023-04-15T14:08:31;12.60;45.20
23633;DHT22;11993;48.748;9.166;2023-04-15T14:10:57;12.30;45.50
23633;DHT22;11993;48.748;9.166;2023-04-15T14:13:23;12.30;46.50
23633;DHT22;11993;48.748;9.166;2023-04-15T14:15:48;12.40;45.40
23633;DHT22;11993;48.748;9.166;2023-04-15T14:18:14;12.10;44.40
23633;DHT22;11993;48.748;9.166;2023-04-15T14:20:39;12.20;44.20
23633;DHT22;11993;48.748;9.166;2023-04-15T14:23:05;12.10;45.60
23633;DHT22;11993;48.748;9.166;2023-04-15T14:25:31;12.00;44.50
23633;DHT22;11993;48.748;9.166;2023-04-15T14:27:56;11.80;41.00
23633;DHT22;11993;48.748;9.166;2023-04-15T14:30:22;11.80;41.60
23633;DHT22;11993;48.748;9.166;2023-04-15T14:32:47;11.60;43.30
23633;DHT22;11993;48.748;9.166;2023-04-15T14:35:13;11.50;43.30
23633;DHT22;11993;48.748;9.166;2023-04-15T14:37:38;11.50;44.00
23633;DHT22;11993;48.748;9.166;2023-04-15T14:40:04;11.40;44.70
23633;DHT22;11993;48.748;9.166;2023-04-15T14:42:30;11.50;45.20
23633;DHT22;11993;48.748;9.166;2023-04-15T14:44:56;11.60;45.40
23633;DHT22;11993;48.748;9.166;2023-04-15T14:47:22;11.60;45.70
23633;DHT22;11993;48.748;9.166;2023-04-15T14:49:48;11.40;46.90
23633;DHT22;11993;48.748;9.166;2023-04-15T14:52:14;11.40;47.00
23633;DHT22;11993;48.748;9.166;2023-04-15T14:54:39;11.40;46.60
23633;DHT22;11993;48.748;9.166;2023-04-15T14:57:05;11.30;47.30
23633;DHT22;11993;48.748;9.166;2023-04-15T14:59:30;11.20;47.30
23633;DHT22;11993;48.748;9.166;2023-04-15T15:01:56;11.20;48.10
23633;DHT22;11993;48.748;9.166;2023-04-15T15:04:21;11.00;48.40
23633;DHT22;11993;48.748;9.166;2023-04-15T15:06:47;10.80;49.50
23633;DHT22;11993;48.748;9.166;2023-04-15T15:09:12;10.80;50.00
23633;DHT22;11993;48.748;9.166;2023-04-15T15:11:38;10.80;49.70
23633;DHT22;11993;48.748;9.166;2023-04-15T15:14:03;10.70;51.00
23633;DHT22;11993;48.748;9.166;2023-04-15T15:16:29;10.50;51.80
23633;DHT22;11993;48.748;9.166;2023-04-15T15:18:54;10.30;52.30
23633;DHT22;11993;48.748;9.166;2023-04-15T15:21:20;10.20;53.20
23633;DHT22;11993;48.748;9.166;2023-04-15T15:23:46;10.20;53.40
23633;DHT22;11993;48.748;9.166;2023-04-15T15:26:12;10.30;53.80
23633;DHT22;11993;48.748;9.166;2023-04-15T15:28:38;10.20;54.20
23633;DHT22;11993;48.748;9.166;2023-04-15T15:31:04;10.20;55.20
23633;DHT22;11993;48.748;9.166;2023-04-15T15:33:30;10.20;54.60
23633;DHT22;11993;48.748;9.166;2023-04-15T15:35:57;10.30;54.70
23633;DHT22;11993;48.748;9.166;2023-04-15T15:38:22;10.40;54.90
23633;DHT22;11993;48.748;9.166;2023-04-15T15:40:48;10.30;55.40
23633;DHT22;11993;48.748;9.166;2023-04-15T15:43:14;10.30;56.30
23633;DHT22;11993;48.748;9.166;2023-04-15T15:45:39;10.10;57.90